createdAt,value
2023-04-16T00:00:59.545Z,10.27
2023-04-16T00:03:26.175Z,11.77
2023-04-16T00:05:55.677Z,10.73
2023-04-16T00:08:24.611Z,11.70
2023-04-16T00:10:51.116Z,10.57
2023-04-16T00:13:17.682Z,14.30
2023-04-16T00:15:44.209Z,11.17
2023-04-16T00:18:10.912Z,8.97
2023-04-16T00:20:37.384Z,16.10
2023-04-16T00:23:03.881Z,13.10
2023-04-16T00:25:30.456Z,11.17
2023-04-16T00:27:56.983Z,12.63
2023-04-16T00:30:23.466Z,9.33
2023-04-16T00:32:50.024Z,17.17
2023-04-16T00:35:16.523Z,11.23
2023-04-16T00:37:43.021Z,10.60
2023-04-16T00:40:09.529Z,10.87
2023-04-16T00:42:37.029Z,14.10
2023-04-16T00:45:03.507Z,11.20
2023-04-16T00:47:30.171Z,10.00
2023-04-16T00:49:56.683Z,13.80
2023-04-16T00:52:23.225Z,14.30
2023-04-16T00:54:49.706Z,11.53
2023-04-16T00:57:16.204Z,13.17
2023-04-16T00:59:42.687Z,14.90
2023-04-16T01:02:09.242Z,11.23
2023-04-16T01:04:35.979Z,17.47
2023-04-16T01:07:02.743Z,13.97
2023-04-16T01:09:29.231Z,13.03
2023-04-16T01:11:55.725Z,12.30
2023-04-16T01:14:22.215Z,11.40
2023-04-16T01:16:48.767Z,13.27
2023-04-16T01:19:15.433Z,11.20
2023-04-16T01:21:41.909Z,16.63
2023-04-16T01:24:08.441Z,14.60
2023-04-16T01:26:34.917Z,18.47
2023-04-16T01:29:01.476Z,11.33
2023-04-16T01:31:27.976Z,15.20
2023-04-16T01:33:54.525Z,14.70
2023-04-16T01:36:21.003Z,11.00
2023-04-16T01:38:47.554Z,13.23
2023-04-16T01:41:15.474Z,13.43
2023-04-16T01:43:42.494Z,20.33
2023-04-16T01:46:09.070Z,14.40
2023-04-16T01:48:35.775Z,13.63
2023-04-16T01:51:02.240Z,12.53
2023-04-16T01:53:28.757Z,15.33
2023-04-16T01:55:55.254Z,11.77
2023-04-16T01:58:21.751Z,13.57
2023-04-16T02:00:48.243Z,10.50
2023-04-16T02:03:14.971Z,13.57
2023-04-16T02:05:41.656Z,13.57
2023-04-16T02:08:08.176Z,12.03
2023-04-16T02:10:34.638Z,18.10
2023-04-16T02:13:01.183Z,10.77
2023-04-16T02:15:27.673Z,15.33
2023-04-16T02:17:56.756Z,14.30
2023-04-16T02:20:23.557Z,15.40
2023-04-16T02:22:50.169Z,13.33
2023-04-16T02:25:16.720Z,10.57
2023-04-16T02:27:43.224Z,15.83
2023-04-16T02:30:10.523Z,14.63
2023-04-16T02:32:37.067Z,15.50
2023-04-16T02:35:04.024Z,13.60
2023-04-16T02:37:30.878Z,10.90
2023-04-16T02:39:57.727Z,10.60
2023-04-16T02:42:24.313Z,10.33
2023-04-16T02:44:50.789Z,10.20
2023-04-16T02:47:17.295Z,10.87
2023-04-16T02:49:43.845Z,9.17
2023-04-16T02:52:10.323Z,8.40
2023-04-16T02:54:36.837Z,9.80
2023-04-16T02:57:03.443Z,9.67
2023-04-16T02:59:30.188Z,9.03
2023-04-16T03:01:56.814Z,9.47
2023-04-16T03:04:23.522Z,8.63
2023-04-16T03:06:50.413Z,10.17
2023-04-16T03:09:17.240Z,10.67
2023-04-16T03:11:43.748Z,19.07
2023-04-16T03:14:10.404Z,10.00
2023-04-16T03:16:36.889Z,12.43
2023-04-16T03:19:03.558Z,8.83
2023-04-16T03:21:30.062Z,10.10
2023-04-16T03:23:57.081Z,10.33
2023-04-16T03:26:23.606Z,10.83
2023-04-16T03:28:50.149Z,10.00
2023-04-16T03:31:16.835Z,9.37
2023-04-16T03:33:43.339Z,12.50
2023-04-16T03:36:10.090Z,15.87
2023-04-16T03:38:36.620Z,11.40
2023-04-16T03:41:03.163Z,11.50
2023-04-16T03:43:29.700Z,17.20
2023-04-16T03:45:56.409Z,14.77
2023-04-16T03:48:22.872Z,12.53
2023-04-16T03:50:49.373Z,13.20
2023-04-16T03:53:16.001Z,15.17
2023-04-16T03:55:42.533Z,14.03
2023-04-16T03:58:09.050Z,17.10
2023-04-16T04:00:35.549Z,15.20
2023-04-16T04:03:02.418Z,21.90
2023-04-16T04:05:29.123Z,16.07
2023-04-16T04:07:55.903Z,16.37
2023-04-16T04:10:22.391Z,16.17
2023-04-16T04:12:48.959Z,17.07
2023-04-16T04:15:15.774Z,18.13
2023-04-16T04:17:42.355Z,17.53
2023-04-16T04:20:08.973Z,19.73
2023-04-16T04:22:35.559Z,21.43
2023-04-16T04:25:02.104Z,22.27
2023-04-16T04:27:28.693Z,20.10
2023-04-16T04:29:55.246Z,23.23
2023-04-16T04:32:21.817Z,20.60
2023-04-16T04:34:48.345Z,20.80
2023-04-16T04:37:14.862Z,20.00
2023-04-16T04:39:41.528Z,22.60
2023-04-16T04:42:08.027Z,24.17
2023-04-16T04:44:34.712Z,28.60
2023-04-16T04:47:01.215Z,21.53
2023-04-16T04:49:27.770Z,25.63
2023-04-16T04:51:54.306Z,20.83
2023-04-16T04:54:20.848Z,24.40
2023-04-16T04:56:47.443Z,25.53
2023-04-16T04:59:13.906Z,21.20
2023-04-16T05:01:40.664Z,24.07
2023-04-16T05:04:07.262Z,22.17
2023-04-16T05:06:33.824Z,26.20
2023-04-16T05:09:00.411Z,22.90
2023-04-16T05:11:26.907Z,24.47
2023-04-16T05:13:53.474Z,26.47
2023-04-16T05:16:20.013Z,21.83
2023-04-16T05:18:46.538Z,21.70
2023-04-16T05:21:13.079Z,22.73
2023-04-16T05:23:39.581Z,21.90
2023-04-16T05:26:06.056Z,22.80
2023-04-16T05:28:32.557Z,23.53
2023-04-16T05:30:59.092Z,21.37
2023-04-16T05:33:25.676Z,36.00
2023-04-16T05:35:52.180Z,25.00
2023-04-16T05:38:18.674Z,24.67
2023-04-16T05:40:45.322Z,24.77
2023-04-16T05:43:11.818Z,24.77
2023-04-16T05:45:41.036Z,27.47
2023-04-16T05:48:08.598Z,27.20
2023-04-16T05:50:35.393Z,30.53
2023-04-16T05:53:01.901Z,29.43
2023-04-16T05:55:28.366Z,27.00
2023-04-16T05:57:54.940Z,28.53
2023-04-16T06:00:21.411Z,32.80
2023-04-16T06:02:48.047Z,29.10
2023-04-16T06:05:14.675Z,27.87
2023-04-16T06:07:41.198Z,29.30
2023-04-16T06:10:07.699Z,31.43
2023-04-16T06:12:34.221Z,32.07
2023-04-16T06:15:00.705Z,29.33
2023-04-16T06:17:27.333Z,34.37
2023-04-16T06:19:53.814Z,33.47
2023-04-16T06:22:20.332Z,32.07
2023-04-16T06:24:46.976Z,31.07
2023-04-16T06:27:13.464Z,35.87
2023-04-16T06:29:41.845Z,31.30
2023-04-16T06:32:08.551Z,31.33
2023-04-16T06:34:35.178Z,32.47
2023-04-16T06:37:01.691Z,31.47
2023-04-16T06:39:28.199Z,33.80
2023-04-16T06:41:54.678Z,33.67
2023-04-16T06:44:21.199Z,33.40
2023-04-16T06:46:47.857Z,32.97
2023-04-16T06:49:14.388Z,31.77
2023-04-16T06:51:40.883Z,34.00
2023-04-16T06:54:07.367Z,33.20
2023-04-16T06:56:34.089Z,36.00
2023-04-16T06:59:00.876Z,35.27
2023-04-16T07:01:27.534Z,33.90
2023-04-16T07:03:54.526Z,32.57
2023-04-16T07:06:21.216Z,34.07
2023-04-16T07:08:47.708Z,35.47
2023-04-16T07:11:14.303Z,33.40
2023-04-16T07:13:40.851Z,34.80
2023-04-16T07:16:07.409Z,33.27
2023-04-16T07:18:33.927Z,34.97
2023-04-16T07:21:00.439Z,34.40
2023-04-16T07:23:27.764Z,35.40
2023-04-16T07:25:54.327Z,35.30
2023-04-16T07:28:20.913Z,34.10
2023-04-16T07:30:47.452Z,33.17
2023-04-16T07:33:13.986Z,34.90
2023-04-16T07:35:40.601Z,35.30
2023-04-16T07:38:07.053Z,38.20
2023-04-16T07:40:33.520Z,33.37
2023-04-16T07:43:00.040Z,36.43
2023-04-16T07:45:26.506Z,35.10
2023-04-16T07:47:53.159Z,36.63
2023-04-16T07:50:19.647Z,35.60
2023-04-16T07:52:46.127Z,35.27
2023-04-16T07:55:12.659Z,34.50
2023-04-16T07:57:39.195Z,33.67
2023-04-16T08:00:05.718Z,34.30
2023-04-16T08:02:32.419Z,37.10
2023-04-16T08:04:59.194Z,35.87
2023-04-16T08:07:25.747Z,37.67
2023-04-16T08:09:52.232Z,37.60
2023-04-16T08:12:18.785Z,33.47
2023-04-16T08:14:45.349Z,35.30
2023-04-16T08:17:11.906Z,35.40
2023-04-16T08:19:38.374Z,37.77
2023-04-16T08:22:04.853Z,33.57
2023-04-16T08:24:31.367Z,34.63
2023-04-16T08:27:11.215Z,34.43
2023-04-16T08:29:44.105Z,33.50
2023-04-16T08:32:10.859Z,36.03
2023-04-16T08:34:37.366Z,32.70
2023-04-16T08:37:03.850Z,36.07
2023-04-16T08:39:30.418Z,34.30
2023-04-16T08:41:56.962Z,34.20
2023-04-16T08:44:23.452Z,34.63
2023-04-16T08:46:50.016Z,35.13
2023-04-16T08:49:17.922Z,34.03
2023-04-16T08:51:44.386Z,37.10
2023-04-16T08:54:10.917Z,36.30
2023-04-16T08:56:37.452Z,35.80
2023-04-16T08:59:07.374Z,32.53
2023-04-16T09:01:34.057Z,32.77
2023-04-16T09:04:01.483Z,31.17
2023-04-16T09:06:28.349Z,32.57
2023-04-16T09:08:54.818Z,33.83
2023-04-16T09:11:21.806Z,31.43
2023-04-16T09:13:48.302Z,34.00
2023-04-16T09:16:15.207Z,33.60
2023-04-16T09:18:41.792Z,32.80
2023-04-16T09:21:08.307Z,35.60
2023-04-16T09:23:34.855Z,35.70
2023-04-16T09:26:01.414Z,36.77
2023-04-16T09:28:27.998Z,35.63
2023-04-16T09:30:54.522Z,36.30
2023-04-16T09:33:24.247Z,32.73
2023-04-16T09:35:50.960Z,35.07
2023-04-16T09:38:17.531Z,38.07
2023-04-16T09:40:44.042Z,36.77
2023-04-16T09:43:10.516Z,35.20
2023-04-16T09:45:37.043Z,34.40
2023-04-16T09:48:04.935Z,37.13
2023-04-16T09:50:31.638Z,38.07
2023-04-16T09:52:58.100Z,37.30
2023-04-16T09:55:24.653Z,37.90
2023-04-16T09:57:51.442Z,34.03
2023-04-16T10:00:17.989Z,34.97
2023-04-16T10:02:44.578Z,35.17
2023-04-16T10:05:11.143Z,34.97
2023-04-16T10:07:37.766Z,35.37
2023-04-16T10:10:04.256Z,35.07
2023-04-16T10:12:32.540Z,35.13
2023-04-16T10:14:59.026Z,36.00
2023-04-16T10:17:25.615Z,34.53
2023-04-16T10:19:52.175Z,33.77
2023-04-16T10:22:18.657Z,36.87
2023-04-16T10:24:45.336Z,38.27
2023-04-16T10:27:12.233Z,34.57
2023-04-16T10:29:38.777Z,33.50
2023-04-16T10:32:05.253Z,34.50
2023-04-16T10:34:31.766Z,31.60
2023-04-16T10:36:58.334Z,31.50
2023-04-16T10:39:24.838Z,32.93
2023-04-16T10:41:51.360Z,30.60
2023-04-16T10:44:17.893Z,32.00
2023-04-16T10:46:44.535Z,31.90
2023-04-16T10:49:11.478Z,28.13
2023-04-16T10:51:38.258Z,29.10
2023-04-16T10:54:05.054Z,31.80
2023-04-16T10:56:31.579Z,28.67
2023-04-16T10:58:58.059Z,29.00
2023-04-16T11:01:24.697Z,30.00
2023-04-16T11:03:51.405Z,30.43
2023-04-16T11:06:18.237Z,30.77
2023-04-16T11:08:53.808Z,30.30
2023-04-16T11:11:21.414Z,29.53
2023-04-16T11:13:48.063Z,29.77
2023-04-16T11:16:14.561Z,30.87
2023-04-16T11:18:50.774Z,28.10
2023-04-16T11:21:18.200Z,30.90
2023-04-16T11:23:45.174Z,28.83
2023-04-16T11:26:21.091Z,28.87
2023-04-16T11:28:48.023Z,26.90
2023-04-16T11:31:17.863Z,28.83
2023-04-16T11:33:46.990Z,28.27
2023-04-16T11:36:14.171Z,25.87
2023-04-16T11:38:46.920Z,23.90
2023-04-16T11:41:16.770Z,27.00
2023-04-16T11:43:45.071Z,25.87
2023-04-16T11:46:27.520Z,26.53
2023-04-16T11:49:00.951Z,27.80
2023-04-16T11:51:29.033Z,26.27
2023-04-16T11:53:56.429Z,26.57
2023-04-16T11:56:23.495Z,27.20
2023-04-16T11:58:55.950Z,27.50
2023-04-16T12:01:32.931Z,28.10
2023-04-16T12:04:05.337Z,26.60
2023-04-16T12:06:32.744Z,25.73
2023-04-16T12:09:07.397Z,25.80
2023-04-16T12:11:35.020Z,26.53
2023-04-16T12:14:01.615Z,23.30
2023-04-16T12:16:28.174Z,24.63
2023-04-16T12:18:54.701Z,26.33
2023-04-16T12:21:21.218Z,27.07
2023-04-16T12:23:47.689Z,25.10
2023-04-16T12:26:14.257Z,25.00
2023-04-16T12:28:41.555Z,26.27
2023-04-16T12:31:08.243Z,23.07
2023-04-16T12:33:34.838Z,25.17
2023-04-16T12:36:03.394Z,26.47
2023-04-16T12:38:30.005Z,27.20
2023-04-16T12:40:57.557Z,24.83
2023-04-16T12:43:24.204Z,42.93
2023-04-16T12:45:50.921Z,29.53
2023-04-16T12:48:17.425Z,32.27
2023-04-16T12:50:44.416Z,28.27
2023-04-16T12:53:11.157Z,42.83
2023-04-16T12:55:37.689Z,52.03
2023-04-16T12:58:04.212Z,26.43
2023-04-16T13:00:30.755Z,31.83
2023-04-16T13:02:57.409Z,25.10
2023-04-16T13:05:23.992Z,24.20
2023-04-16T13:07:50.527Z,23.70
2023-04-16T13:10:17.371Z,24.00
2023-04-16T13:12:43.876Z,25.80
2023-04-16T13:15:10.533Z,24.43
2023-04-16T13:17:37.088Z,22.70
2023-04-16T13:20:03.653Z,23.93
2023-04-16T13:22:30.197Z,26.67
2023-04-16T13:24:58.956Z,25.47
2023-04-16T13:27:25.956Z,41.27
2023-04-16T13:29:52.458Z,22.33
2023-04-16T13:32:19.141Z,24.00
2023-04-16T13:34:45.697Z,22.37
2023-04-16T13:37:19.314Z,23.43
2023-04-16T13:39:48.966Z,21.20
2023-04-16T13:42:18.921Z,22.97
2023-04-16T13:44:56.002Z,24.33
2023-04-16T13:47:22.521Z,29.30
2023-04-16T13:49:57.848Z,24.13
2023-04-16T13:52:33.475Z,25.33
2023-04-16T13:55:00.508Z,26.30
2023-04-16T13:57:30.515Z,43.13
2023-04-16T13:59:57.680Z,30.40
2023-04-16T14:02:25.910Z,26.67
2023-04-16T14:04:53.826Z,25.13
2023-04-16T14:07:22.450Z,56.70
2023-04-16T14:09:48.982Z,55.40
2023-04-16T14:12:21.592Z,26.57
2023-04-16T14:14:48.181Z,26.07
2023-04-16T14:17:15.057Z,23.90
2023-04-16T14:19:41.998Z,36.20
2023-04-16T14:22:09.494Z,24.70
2023-04-16T14:24:36.325Z,23.00
2023-04-16T14:27:21.051Z,23.50
2023-04-16T14:29:54.234Z,28.10
2023-04-16T14:32:29.386Z,24.00
2023-04-16T14:35:21.271Z,30.30
2023-04-16T14:37:47.808Z,20.07
2023-04-16T14:40:18.258Z,20.70
2023-04-16T14:42:45.330Z,21.00
2023-04-16T14:45:19.504Z,23.20
2023-04-16T14:47:47.852Z,34.70
2023-04-16T14:50:15.718Z,33.90
2023-04-16T14:52:48.007Z,21.90
2023-04-16T14:55:22.921Z,22.30
2023-04-16T14:57:56.248Z,22.43
2023-04-16T15:00:26.403Z,22.27
2023-04-16T15:02:53.183Z,21.43
2023-04-16T15:05:19.791Z,19.33
2023-04-16T15:07:46.673Z,21.00
2023-04-16T15:10:13.211Z,21.57
2023-04-16T15:12:39.820Z,20.67
2023-04-16T15:15:06.753Z,19.77
2023-04-16T15:17:33.299Z,24.50
2023-04-16T15:20:00.500Z,21.20
2023-04-16T15:22:27.337Z,17.37
2023-04-16T15:24:54.064Z,19.13
2023-04-16T15:27:20.686Z,19.00
2023-04-16T15:29:49.257Z,17.67
2023-04-16T15:32:15.992Z,19.40
2023-04-16T15:34:42.532Z,18.10
2023-04-16T15:37:09.595Z,20.40
2023-04-16T15:39:36.417Z,23.10
2023-04-16T15:42:05.854Z,22.43
2023-04-16T15:44:33.718Z,21.93
2023-04-16T15:47:00.379Z,20.47
2023-04-16T15:49:27.033Z,19.70
2023-04-16T15:51:53.567Z,21.40
2023-04-16T15:54:20.299Z,20.73
2023-04-16T15:56:46.803Z,20.80
2023-04-16T15:59:13.467Z,21.03
2023-04-16T16:01:40.108Z,21.03
2023-04-16T16:04:06.859Z,19.87
2023-04-16T16:06:33.834Z,20.50
2023-04-16T16:09:00.327Z,20.00
2023-04-16T16:11:27.108Z,19.10
2023-04-16T16:13:53.656Z,19.97
2023-04-16T16:16:21.665Z,19.93
2023-04-16T16:18:48.419Z,21.40
2023-04-16T16:21:14.979Z,20.40
2023-04-16T16:23:41.883Z,21.13
2023-04-16T16:26:09.083Z,19.20
2023-04-16T16:28:37.993Z,19.83
2023-04-16T16:31:07.337Z,19.10
2023-04-16T16:33:34.022Z,20.17
2023-04-16T16:36:00.615Z,17.70
2023-04-16T16:38:29.316Z,18.07
2023-04-16T16:41:01.083Z,21.80
2023-04-16T16:43:27.775Z,23.03
2023-04-16T16:46:00.265Z,24.27
2023-04-16T16:48:28.773Z,20.90
2023-04-16T16:50:55.352Z,17.87
2023-04-16T16:53:21.853Z,22.10
2023-04-16T16:55:54.801Z,18.67
2023-04-16T16:58:21.357Z,18.07
2023-04-16T17:00:47.883Z,23.37
2023-04-16T17:03:14.594Z,24.87
2023-04-16T17:05:41.432Z,20.33
2023-04-16T17:08:07.995Z,20.50
2023-04-16T17:10:36.242Z,20.80
2023-04-16T17:13:06.707Z,19.50
2023-04-16T17:15:33.203Z,18.80
2023-04-16T17:17:59.964Z,19.77
2023-04-16T17:20:26.541Z,20.60
2023-04-16T17:22:53.062Z,20.77
2023-04-16T17:25:19.564Z,21.10
2023-04-16T17:27:46.409Z,18.23
2023-04-16T17:30:12.985Z,17.33
2023-04-16T17:32:39.546Z,17.93
2023-04-16T17:35:06.826Z,18.50
2023-04-16T17:37:33.428Z,17.03
2023-04-16T17:40:00.072Z,17.50
2023-04-16T17:42:26.601Z,17.50
2023-04-16T17:44:53.161Z,16.40
2023-04-16T17:47:19.795Z,17.57
2023-04-16T17:49:46.356Z,19.13
2023-04-16T17:52:12.892Z,18.20
2023-04-16T17:54:39.430Z,20.58
2023-04-16T17:57:06.181Z,20.73
2023-04-16T17:59:32.650Z,18.97
2023-04-16T18:01:59.309Z,18.43
2023-04-16T18:04:26.220Z,20.07
2023-04-16T18:06:52.848Z,18.00
2023-04-16T18:09:19.516Z,18.33
2023-04-16T18:11:46.234Z,18.67
2023-04-16T18:14:16.585Z,20.40
2023-04-16T18:16:43.146Z,18.53
2023-04-16T18:19:09.714Z,17.00
2023-04-16T18:21:36.203Z,16.30
2023-04-16T18:24:10.426Z,16.70
2023-04-16T18:26:37.610Z,19.30
2023-04-16T18:29:04.624Z,18.20
2023-04-16T18:31:37.569Z,18.90
2023-04-16T18:34:06.649Z,18.80
2023-04-16T18:36:33.667Z,18.13
2023-04-16T18:39:03.289Z,17.13
2023-04-16T18:41:29.921Z,17.47
2023-04-16T18:43:57.708Z,19.00
2023-04-16T18:46:25.034Z,17.43
2023-04-16T18:48:51.769Z,18.30
2023-04-16T18:51:18.283Z,19.13
2023-04-16T18:53:45.581Z,18.17
2023-04-16T18:56:12.472Z,18.10
2023-04-16T18:58:39.043Z,19.40
2023-04-16T19:01:10.841Z,19.00
2023-04-16T19:03:38.018Z,16.97
2023-04-16T19:06:04.707Z,15.97
2023-04-16T19:08:31.220Z,16.90
2023-04-16T19:10:57.746Z,17.83
2023-04-16T19:13:24.307Z,17.17
2023-04-16T19:15:50.842Z,17.07
2023-04-16T19:18:17.309Z,15.73
2023-04-16T19:20:43.896Z,17.07
2023-04-16T19:23:12.415Z,17.17
2023-04-16T19:25:39.688Z,19.50
2023-04-16T19:28:09.902Z,19.40
2023-04-16T19:30:36.588Z,18.73
2023-04-16T19:33:03.107Z,17.73
2023-04-16T19:35:37.155Z,18.57
2023-04-16T19:38:03.667Z,19.63
2023-04-16T19:40:30.239Z,18.43
2023-04-16T19:42:57.128Z,18.90
2023-04-16T19:45:25.932Z,18.40
2023-04-16T19:47:52.504Z,16.40
2023-04-16T19:50:19.016Z,16.97
2023-04-16T19:52:45.478Z,17.90
2023-04-16T19:55:12.680Z,17.97
2023-04-16T19:57:39.233Z,17.30
2023-04-16T20:00:09.053Z,17.37
2023-04-16T20:02:35.951Z,16.57
2023-04-16T20:05:02.963Z,20.30
2023-04-16T20:07:29.428Z,18.73
2023-04-16T20:09:55.992Z,17.47
2023-04-16T20:12:22.877Z,18.20
2023-04-16T20:14:49.396Z,17.50
2023-04-16T20:17:19.489Z,17.57
2023-04-16T20:19:47.410Z,17.80
2023-04-16T20:22:14.816Z,18.53
2023-04-16T20:24:47.767Z,16.23
2023-04-16T20:27:15.053Z,18.70
2023-04-16T20:29:41.775Z,18.43
2023-04-16T20:32:17.773Z,18.00
2023-04-16T20:34:54.454Z,16.07
2023-04-16T20:37:21.133Z,17.90
2023-04-16T20:39:53.893Z,17.20
2023-04-16T20:42:22.491Z,19.17
2023-04-16T20:44:55.712Z,18.07
2023-04-16T20:47:23.029Z,20.50
2023-04-16T20:49:49.787Z,19.27
2023-04-16T20:52:21.691Z,18.53
2023-04-16T20:54:52.234Z,17.77
2023-04-16T20:57:19.015Z,19.20
2023-04-16T20:59:51.698Z,19.50
2023-04-16T21:02:20.025Z,21.17
2023-04-16T21:04:46.838Z,18.23
2023-04-16T21:07:18.120Z,18.43
2023-04-16T21:09:47.570Z,21.07
2023-04-16T21:12:14.100Z,17.97
2023-04-16T21:14:40.619Z,23.20
2023-04-16T21:17:07.270Z,24.77
2023-04-16T21:19:33.864Z,20.23
2023-04-16T21:22:02.361Z,19.70
2023-04-16T21:24:28.851Z,20.07
2023-04-16T21:26:56.708Z,19.20
2023-04-16T21:29:23.157Z,19.03
2023-04-16T21:31:49.806Z,21.73
2023-04-16T21:34:16.423Z,21.60
2023-04-16T21:36:42.925Z,21.70
2023-04-16T21:39:09.592Z,23.40
2023-04-16T21:41:36.183Z,20.87
2023-04-16T21:44:02.657Z,21.63
2023-04-16T21:46:29.234Z,22.20
2023-04-16T21:48:55.790Z,21.63
2023-04-16T21:51:28.972Z,21.30
2023-04-16T21:53:55.948Z,21.37
2023-04-16T21:56:22.469Z,20.93
2023-04-16T21:58:49.070Z,22.00
2023-04-16T22:01:16.228Z,21.40
2023-04-16T22:03:42.877Z,22.87
2023-04-16T22:06:09.426Z,21.90
2023-04-16T22:08:35.885Z,21.43
2023-04-16T22:11:02.430Z,22.97
2023-04-16T22:13:29.893Z,24.53
2023-04-16T22:15:57.596Z,26.67
2023-04-16T22:18:26.966Z,26.23
2023-04-16T22:20:54.945Z,23.60
2023-04-16T22:23:21.573Z,24.07
2023-04-16T22:25:48.060Z,25.00
2023-04-16T22:28:14.517Z,26.47
2023-04-16T22:30:41.051Z,27.77
2023-04-16T22:33:07.671Z,23.50
2023-04-16T22:35:34.278Z,24.97
2023-04-16T22:38:00.807Z,26.10
2023-04-16T22:40:27.330Z,24.27
2023-04-16T22:42:53.789Z,27.03
2023-04-16T22:45:20.318Z,26.50
2023-04-16T22:47:46.836Z,25.07
2023-04-16T22:50:13.398Z,27.10
2023-04-16T22:52:39.867Z,25.50
2023-04-16T22:55:06.799Z,25.37
2023-04-16T22:57:33.293Z,27.03
2023-04-16T22:59:59.849Z,26.47
2023-04-16T23:02:26.383Z,24.90
2023-04-16T23:04:52.969Z,25.60
2023-04-16T23:07:19.448Z,24.30
2023-04-16T23:09:45.965Z,27.60
2023-04-16T23:12:12.470Z,24.30
2023-04-16T23:14:38.985Z,27.13
2023-04-16T23:17:05.542Z,26.47
2023-04-16T23:19:32.128Z,26.53
2023-04-16T23:21:58.723Z,26.33
2023-04-16T23:24:25.330Z,24.63
2023-04-16T23:26:52.454Z,23.17
2023-04-16T23:29:18.965Z,25.07
2023-04-16T23:31:45.550Z,24.10
2023-04-16T23:34:12.074Z,25.03
2023-04-16T23:36:39.146Z,27.23
2023-04-16T23:39:05.611Z,22.63
2023-04-16T23:41:32.103Z,23.70
2023-04-16T23:43:58.953Z,23.70
2023-04-16T23:46:26.026Z,25.33
2023-04-16T23:48:52.680Z,26.97
2023-04-16T23:51:19.158Z,26.10
2023-04-16T23:53:45.721Z,24.53
2023-04-16T23:56:12.578Z,26.10
2023-04-16T23:58:39.097Z,26.43
